Time;durP1;ratioP1;P1;durP2;ratioP2;P2;SDS_P1;SDS_P2;PMS_P1;PMS_P2;Temp;Humidity;BMP_temperature;BMP_pressure;BME280_temperature;BME280_humidity;BME280_pressure;Samples;Min_cycle;Max_cycle;Signal;HPM_P1;HPM_P2
2021/12/19 00:00:16;;;;;;;12.13;6.07;;;3.60;99.90;;;;;;5094759;28;20525;-59
2021/12/19 00:10:55;;;;;;;12.82;6.18;;;3.60;99.90;;;;;;5091492;28;20195;-59
2021/12/19 00:13:24;;;;;;;13.68;6.03;;;3.60;99.90;;;;;;5094972;28;20700;-59
2021/12/19 00:15:50;;;;;;;14.13;6.50;;;3.70;99.90;;;;;;5094545;28;20177;-59
2021/12/19 00:18:15;;;;;;;14.75;6.93;;;3.60;99.90;;;;;;5094363;28;20216;-59
2021/12/19 00:20:41;;;;;;;16.35;6.70;;;3.60;99.90;;;;;;5094578;28;20236;-59
2021/12/19 00:23:07;;;;;;;14.18;6.70;;;3.70;99.90;;;;;;5094312;28;20183;-59
2021/12/19 00:25:33;;;;;;;12.63;6.40;;;3.70;99.90;;;;;;5094587;28;20230;-59
2021/12/19 00:27:58;;;;;;;12.90;6.80;;;3.70;99.90;;;;;;5094458;28;20204;-59
2021/12/19 00:30:24;;;;;;;13.20;6.18;;;3.70;99.90;;;;;;5094405;28;20574;-59
2021/12/19 00:32:49;;;;;;;14.13;6.20;;;3.70;99.90;;;;;;5094372;28;20753;-59
2021/12/19 00:35:15;;;;;;;17.88;7.25;;;3.60;99.90;;;;;;5094701;28;20176;-59
2021/12/19 00:37:41;;;;;;;12.40;6.00;;;3.60;99.90;;;;;;5093852;28;20219;-58
2021/12/19 00:40:08;;;;;;;14.20;6.10;;;3.60;99.90;;;;;;5094169;28;20176;-58
2021/12/19 00:42:35;;;;;;;13.38;6.00;;;3.60;99.90;;;;;;5093097;28;20180;-59
2021/12/19 00:45:16;;;;;;;13.38;6.60;;;3.60;99.90;;;;;;5094002;28;20542;-59
2021/12/19 00:47:43;;;;;;;16.10;6.97;;;3.70;99.90;;;;;;5093870;28;20208;-59
2021/12/19 00:50:09;;;;;;;15.00;6.15;;;3.70;99.90;;;;;;5094361;28;20176;-59
2021/12/19 00:52:35;;;;;;;12.20;5.75;;;3.70;99.90;;;;;;5093731;28;20195;-59
2021/12/19 00:55:00;;;;;;;15.93;6.95;;;3.70;99.90;;;;;;5089496;28;20181;-59
2021/12/19 00:57:26;;;;;;;13.43;6.53;;;3.70;99.90;;;;;;5093336;28;20266;-59
2021/12/19 00:59:51;;;;;;;13.45;6.15;;;3.70;99.90;;;;;;5094313;28;20173;-59
2021/12/19 01:02:17;;;;;;;12.95;5.95;;;3.70;99.90;;;;;;5093477;28;20283;-59
2021/12/19 01:04:42;;;;;;;11.85;5.70;;;3.60;99.90;;;;;;5093733;28;20226;-59
2021/12/19 01:07:08;;;;;;;12.25;5.97;;;3.50;99.90;;;;;;5094025;28;20581;-59
2021/12/19 01:09:34;;;;;;;9.20;5.00;;;3.50;99.90;;;;;;5093324;28;20262;-59
2021/12/19 01:12:00;;;;;;;13.25;5.40;;;3.50;99.90;;;;;;5093965;28;20168;-59
2021/12/19 01:14:26;;;;;;;12.00;5.95;;;3.50;99.90;;;;;;5093544;28;20187;-59
2021/12/19 01:16:51;;;;;;;11.23;5.28;;;3.50;99.90;;;;;;5094021;28;20217;-59
2021/12/19 01:19:17;;;;;;;11.45;5.80;;;3.50;99.90;;;;;;5092907;28;20535;-59
2021/12/19 01:21:43;;;;;;;12.10;5.43;;;3.40;99.90;;;;;;5093856;28;20222;-59
2021/12/19 01:24:08;;;;;;;12.07;6.10;;;3.40;99.90;;;;;;5092799;28;20202;-59
2021/12/19 01:26:34;;;;;;;12.55;6.18;;;3.40;99.90;;;;;;5093588;28;20388;-58
2021/12/19 01:28:59;;;;;;;13.98;5.60;;;3.40;99.90;;;;;;5091770;28;20190;-59
2021/12/19 01:31:25;;;;;;;12.88;5.72;;;3.40;99.90;;;;;;5093357;28;20191;-59
2021/12/19 01:33:50;;;;;;;13.45;5.63;;;3.40;99.90;;;;;;5093081;28;20199;-59
2021/12/19 01:36:18;;;;;;;13.05;6.22;;;3.40;99.90;;;;;;5093501;28;20180;-58
2021/12/19 01:38:44;;;;;;;11.10;5.20;;;3.40;99.90;;;;;;5092707;28;20245;-58
2021/12/19 01:41:09;;;;;;;11.40;5.72;;;3.40;99.90;;;;;;5093523;28;20584;-58
2021/12/19 01:43:35;;;;;;;12.63;5.95;;;3.40;99.90;;;;;;5091630;28;20261;-58
2021/12/19 01:46:01;;;;;;;11.55;5.35;;;3.40;99.90;;;;;;5092182;28;20172;-58
2021/12/19 01:48:26;;;;;;;9.93;4.47;;;3.40;99.90;;;;;;5092797;28;20227;-58
2021/12/19 01:50:53;;;;;;;9.60;5.07;;;3.40;99.90;;;;;;5093107;28;20184;-58
2021/12/19 01:53:19;;;;;;;10.70;5.05;;;3.40;99.90;;;;;;5092452;28;20225;-59
2021/12/19 01:55:46;;;;;;;13.07;5.25;;;3.40;99.90;;;;;;5088361;28;20267;-58
2021/12/19 01:58:13;;;;;;;8.98;4.97;;;3.40;99.90;;;;;;5092314;28;20223;-59
2021/12/19 02:00:46;;;;;;;14.27;5.70;;;3.40;99.90;;;;;;5093184;28;20271;-58
2021/12/19 02:03:13;;;;;;;11.60;5.95;;;3.40;99.90;;;;;;5092388;28;20655;-59
2021/12/19 02:05:39;;;;;;;13.65;6.00;;;3.40;99.90;;;;;;5092503;28;20225;-58
2021/12/19 02:08:05;;;;;;;14.48;6.18;;;3.40;99.90;;;;;;5092349;28;20180;-59
2021/12/19 02:10:32;;;;;;;15.65;5.90;;;3.30;99.90;;;;;;5092136;28;20223;-59
2021/12/19 02:13:00;;;;;;;11.77;5.70;;;3.30;99.90;;;;;;5092723;28;20172;-58
2021/12/19 02:15:28;;;;;;;15.40;7.03;;;3.30;99.90;;;;;;5092070;28;20574;-58
2021/12/19 02:17:59;;;;;;;12.38;5.63;;;3.50;99.90;;;;;;5091853;28;20218;-59
2021/12/19 02:20:29;;;;;;;11.55;5.45;;;3.60;99.90;;;;;;5092350;28;20194;-58
2021/12/19 02:22:55;;;;;;;17.00;6.68;;;3.60;99.90;;;;;;5091975;28;20262;-58
2021/12/19 02:25:21;;;;;;;13.05;6.13;;;3.60;99.90;;;;;;5092229;28;20699;-58
2021/12/19 02:27:46;;;;;;;12.60;6.15;;;3.60;99.90;;;;;;5091554;28;20183;-58
2021/12/19 02:30:13;;;;;;;12.50;6.03;;;3.60;99.90;;;;;;5092557;28;20539;-58
2021/12/19 02:32:40;;;;;;;11.60;5.78;;;3.60;99.90;;;;;;5091829;28;20506;-58
2021/12/19 02:35:10;;;;;;;11.98;5.85;;;3.60;99.90;;;;;;5090943;28;20184;-58
2021/12/19 02:40:39;;;;;;;11.88;5.47;;;3.60;99.90;;;;;;5092034;28;20214;-58
2021/12/19 02:48:27;;;;;;;10.73;5.57;;;3.60;99.90;;;;;;5092198;28;20229;-58
2021/12/19 02:50:54;;;;;;;11.48;5.43;;;3.60;99.90;;;;;;5092036;28;20220;-58
2021/12/19 02:53:32;;;;;;;13.38;5.85;;;3.60;99.90;;;;;;5091899;28;20191;-59
2021/12/19 02:56:01;;;;;;;11.98;5.45;;;3.60;99.90;;;;;;5091664;28;20183;-59
2021/12/19 02:58:28;;;;;;;13.18;5.78;;;3.50;99.90;;;;;;5091518;28;20246;-58
2021/12/19 03:00:55;;;;;;;13.60;6.22;;;3.50;99.90;;;;;;5091786;28;20172;-58
2021/12/19 03:03:20;;;;;;;14.02;6.10;;;3.40;99.90;;;;;;5091360;28;20200;-58
2021/12/19 03:05:47;;;;;;;15.48;6.57;;;3.40;99.90;;;;;;5091606;28;20263;-58
2021/12/19 03:08:13;;;;;;;17.70;6.88;;;3.40;99.90;;;;;;5090734;28;20207;-59
2021/12/19 03:17:57;;;;;;;12.90;5.45;;;3.40;99.90;;;;;;5091874;28;20210;-59
2021/12/19 03:19:08;;;;;;;10.35;4.80;;;3.40;99.90;;;;;;5091657;28;20199;-59
2021/12/19 03:21:33;;;;;;;12.25;5.38;;;3.40;99.90;;;;;;5091386;28;20180;-58
2021/12/19 03:23:59;;;;;;;10.25;4.28;;;3.40;99.90;;;;;;5091463;28;20275;-59
2021/12/19 03:26:24;;;;;;;8.20;4.05;;;3.50;99.90;;;;;;5091457;28;20576;-59
2021/12/19 03:28:50;;;;;;;8.68;3.40;;;3.40;99.90;;;;;;5091523;28;20180;-59
2021/12/19 03:31:15;;;;;;;8.57;3.92;;;3.40;99.90;;;;;;5091027;28;20176;-59
2021/12/19 03:33:41;;;;;;;7.70;3.85;;;3.30;99.90;;;;;;5091253;28;20176;-58
2021/12/19 03:36:07;;;;;;;7.65;4.03;;;3.30;99.90;;;;;;5091236;28;20544;-59
2021/12/19 03:38:41;;;;;;;6.05;3.65;;;3.30;99.90;;;;;;5090911;28;20706;-59
2021/12/19 03:41:15;;;;;;;6.88;3.50;;;3.20;99.90;;;;;;5091878;28;20187;-59
2021/12/19 03:43:41;;;;;;;6.57;3.38;;;3.30;99.90;;;;;;5091498;28;20179;-61
2021/12/19 03:46:07;;;;;;;7.82;3.33;;;3.30;99.90;;;;;;5091333;28;20187;-59
2021/12/19 03:48:32;;;;;;;5.88;3.47;;;3.30;99.90;;;;;;5091055;28;20191;-59
2021/12/19 03:50:59;;;;;;;6.53;3.58;;;3.40;99.90;;;;;;5091318;28;20202;-57
2021/12/19 03:53:25;;;;;;;6.78;3.70;;;3.40;99.90;;;;;;5091201;28;20623;-58
2021/12/19 03:55:51;;;;;;;5.97;3.92;;;3.40;99.90;;;;;;5090942;28;20199;-58
2021/12/19 03:58:18;;;;;;;6.63;3.72;;;3.30;99.90;;;;;;5090994;28;20232;-59
2021/12/19 04:00:46;;;;;;;6.13;3.58;;;3.30;99.90;;;;;;5090978;28;20175;-58
2021/12/19 04:03:18;;;;;;;8.70;4.97;;;3.30;99.90;;;;;;5090882;28;20196;-59
2021/12/19 04:05:45;;;;;;;9.55;5.03;;;3.20;99.90;;;;;;5091076;28;20250;-58
2021/12/19 04:08:11;;;;;;;9.32;4.80;;;3.20;99.90;;;;;;5090797;28;20527;-58
2021/12/19 04:10:38;;;;;;;7.45;4.03;;;3.20;99.90;;;;;;5090976;28;20185;-58
2021/12/19 04:13:03;;;;;;;9.15;4.20;;;3.20;99.90;;;;;;5090898;28;20180;-58
2021/12/19 04:15:29;;;;;;;10.75;4.40;;;3.20;99.90;;;;;;5073531;28;20630;-58
2021/12/19 04:17:55;;;;;;;8.27;4.43;;;3.20;99.90;;;;;;5094733;28;20212;-58
2021/12/19 04:20:21;;;;;;;8.73;4.00;;;3.20;99.90;;;;;;5094304;28;20184;-58
2021/12/19 04:22:49;;;;;;;8.45;3.72;;;3.20;99.90;;;;;;5093310;28;20537;-58
2021/12/19 04:25:14;;;;;;;8.40;4.05;;;3.20;99.90;;;;;;5094193;28;20229;-58
2021/12/19 04:27:41;;;;;;;10.23;4.30;;;3.20;99.90;;;;;;5094458;28;20188;-58
2021/12/19 04:30:10;;;;;;;10.52;4.90;;;3.20;99.90;;;;;;5094969;28;20301;-57
2021/12/19 04:32:41;;;;;;;10.38;4.97;;;3.20;99.90;;;;;;5094030;28;20303;-58
2021/12/19 04:35:09;;;;;;;11.07;4.07;;;3.20;99.90;;;;;;5094389;28;20199;-58
2021/12/19 04:38:04;;;;;;;11.02;4.28;;;3.10;99.90;;;;;;5094159;28;20192;-59
2021/12/19 04:40:28;;;;;;;11.88;4.30;;;3.10;99.90;;;;;;5093485;28;20329;-59
2021/12/19 04:50:59;;;;;;;12.85;4.70;;;3.20;99.90;;;;;;5094605;28;20194;-58
2021/12/19 04:54:44;;;;;;;10.52;5.32;;;3.20;99.90;;;;;;5074149;28;20238;-58
2021/12/19 04:59:59;;;;;;;12.50;5.07;;;3.20;99.90;;;;;;5093968;28;20279;-58
2021/12/19 05:02:37;;;;;;;10.20;5.28;;;3.20;99.90;;;;;;5093101;28;20169;-58
2021/12/19 05:15:46;;;;;;;11.25;5.10;;;3.20;99.90;;;;;;5093789;28;20195;-58
2021/12/19 05:18:12;;;;;;;11.18;5.10;;;3.20;99.90;;;;;;5092920;28;20692;-58
2021/12/19 05:20:40;;;;;;;13.18;5.63;;;3.30;99.90;;;;;;5093282;28;20255;-58
2021/12/19 05:23:19;;;;;;;11.75;5.55;;;3.30;99.90;;;;;;5093408;28;20196;-58
2021/12/19 05:25:44;;;;;;;13.82;5.47;;;3.30;99.90;;;;;;5093590;28;20216;-58
2021/12/19 05:28:10;;;;;;;10.98;4.50;;;3.30;99.90;;;;;;5092769;28;20180;-60
2021/12/19 05:30:35;;;;;;;11.20;4.90;;;3.30;99.90;;;;;;5093198;28;20574;-58
2021/12/19 05:33:02;;;;;;;10.18;5.25;;;3.30;99.90;;;;;;5092855;28;20665;-57
2021/12/19 05:44:10;;;;;;;11.63;5.30;;;3.30;99.90;;;;;;5092897;28;20191;-58
2021/12/19 05:46:25;;;;;;;8.90;4.47;;;3.20;99.90;;;;;;5083497;28;20183;-58
2021/12/19 05:48:53;;;;;;;11.40;4.50;;;3.10;99.90;;;;;;5093003;28;20184;-58
2021/12/19 05:51:19;;;;;;;9.27;4.57;;;3.10;99.90;;;;;;5092843;28;20172;-58
2021/12/19 05:53:44;;;;;;;9.30;4.33;;;3.10;99.90;;;;;;5092252;28;20658;-58
2021/12/19 05:56:10;;;;;;;9.48;4.03;;;3.10;99.90;;;;;;5092820;28;20660;-58
2021/12/19 05:58:35;;;;;;;7.78;4.07;;;3.10;99.90;;;;;;5092171;28;20292;-58
2021/12/19 06:01:01;;;;;;;7.55;3.90;;;3.00;99.90;;;;;;5093263;28;20206;-58
2021/12/19 06:03:27;;;;;;;7.43;4.25;;;3.00;99.90;;;;;;5090651;28;20180;-58
2021/12/19 06:05:52;;;;;;;9.52;4.20;;;3.00;99.90;;;;;;5092990;28;20172;-58
2021/12/19 06:08:18;;;;;;;8.27;4.00;;;3.00;99.90;;;;;;5092202;28;20184;-58
2021/12/19 06:10:43;;;;;;;6.72;3.70;;;3.00;99.90;;;;;;5092598;28;20187;-58
2021/12/19 06:13:09;;;;;;;6.57;3.60;;;2.90;99.90;;;;;;5092446;28;20195;-58
2021/12/19 06:15:36;;;;;;;7.10;3.80;;;2.90;99.90;;;;;;5092500;28;20266;-58
2021/12/19 06:18:03;;;;;;;8.18;3.90;;;2.90;99.90;;;;;;5091904;28;20299;-58
2021/12/19 06:20:31;;;;;;;6.70;3.47;;;2.90;99.90;;;;;;5092561;28;20183;-58
2021/12/19 06:22:56;;;;;;;9.48;4.28;;;2.90;99.90;;;;;;5091922;28;20183;-58
2021/12/19 06:25:22;;;;;;;9.73;3.58;;;3.00;99.90;;;;;;5092140;28;20569;-58
2021/12/19 06:27:47;;;;;;;7.25;3.75;;;3.00;99.90;;;;;;5091634;28;20195;-58
2021/12/19 06:30:13;;;;;;;7.68;3.88;;;3.00;99.90;;;;;;5091867;28;20195;-58
2021/12/19 06:32:39;;;;;;;7.40;4.38;;;3.00;99.90;;;;;;5091172;28;20187;-58
2021/12/19 06:35:10;;;;;;;7.50;3.83;;;3.00;99.90;;;;;;5092190;28;20178;-58
2021/12/19 06:37:38;;;;;;;9.73;4.68;;;2.90;99.90;;;;;;5091393;28;20219;-58
2021/12/19 06:40:06;;;;;;;7.53;4.10;;;2.90;99.90;;;;;;5091313;28;20259;-58
2021/12/19 06:42:32;;;;;;;7.05;4.40;;;2.90;99.90;;;;;;5092020;28;20192;-58
2021/12/19 06:44:58;;;;;;;10.30;4.60;;;2.90;99.90;;;;;;5090452;28;20259;-58
2021/12/19 06:47:23;;;;;;;9.02;4.28;;;3.00;99.90;;;;;;5091441;28;20172;-58
2021/12/19 06:49:49;;;;;;;8.27;4.30;;;3.10;99.90;;;;;;5091776;28;20180;-59
2021/12/19 06:52:15;;;;;;;11.15;4.60;;;3.10;99.90;;;;;;5091386;28;20299;-58
2021/12/19 06:54:40;;;;;;;8.50;3.97;;;3.10;99.90;;;;;;5088301;28;20184;-58
2021/12/19 06:57:06;;;;;;;8.55;4.07;;;3.10;99.90;;;;;;5090751;28;20277;-58
2021/12/19 06:59:31;;;;;;;7.90;3.92;;;3.10;99.90;;;;;;5091548;28;20659;-59
2021/12/19 07:01:57;;;;;;;8.45;4.45;;;3.10;99.90;;;;;;5091285;28;20200;-60
2021/12/19 07:04:22;;;;;;;9.25;4.90;;;3.10;99.90;;;;;;5090988;28;20540;-58
2021/12/19 07:06:48;;;;;;;8.32;3.92;;;3.20;99.90;;;;;;5091501;28;20602;-58
2021/12/19 07:09:13;;;;;;;6.25;3.88;;;3.20;99.90;;;;;;5091216;28;20172;-59
2021/12/19 07:11:39;;;;;;;8.25;3.95;;;3.20;99.90;;;;;;5091265;28;20195;-58
2021/12/19 07:14:04;;;;;;;9.13;4.47;;;3.10;99.90;;;;;;5091387;28;20229;-58
2021/12/19 07:16:30;;;;;;;6.10;3.50;;;3.10;99.90;;;;;;5090705;28;20685;-58
2021/12/19 07:18:55;;;;;;;8.40;4.10;;;3.10;99.90;;;;;;5091195;28;20188;-58
2021/12/19 07:21:23;;;;;;;6.50;3.60;;;3.10;99.90;;;;;;5091378;28;20184;-58
2021/12/19 07:23:49;;;;;;;6.93;3.47;;;3.20;99.90;;;;;;5090805;28;20601;-58
2021/12/19 07:26:14;;;;;;;5.75;3.70;;;3.20;99.90;;;;;;5090655;28;20183;-58
2021/12/19 07:28:40;;;;;;;5.47;3.38;;;3.30;99.90;;;;;;5091345;28;20258;-58
2021/12/19 07:31:06;;;;;;;6.18;3.60;;;3.20;99.90;;;;;;5090828;28;20254;-57
2021/12/19 07:33:32;;;;;;;8.10;4.20;;;3.20;99.90;;;;;;5090940;28;20585;-58
2021/12/19 07:36:00;;;;;;;7.28;3.97;;;3.20;99.90;;;;;;5089737;28;20443;-57
2021/12/19 07:38:40;;;;;;;7.90;4.15;;;3.20;99.90;;;;;;5091015;28;20306;-58
2021/12/19 07:41:06;;;;;;;7.13;4.38;;;3.30;99.90;;;;;;5090831;28;20172;-58
2021/12/19 07:43:31;;;;;;;7.57;4.40;;;3.20;99.90;;;;;;5090841;28;20666;-58
2021/12/19 07:45:57;;;;;;;9.90;5.20;;;3.20;99.90;;;;;;5089427;28;20230;-58
2021/12/19 07:48:23;;;;;;;8.77;4.55;;;3.20;99.90;;;;;;5091136;28;20180;-58
2021/12/19 07:50:49;;;;;;;8.38;5.88;;;3.20;99.90;;;;;;5091482;28;20180;-58
2021/12/19 07:53:14;;;;;;;13.05;6.93;;;3.20;99.90;;;;;;5095130;28;20184;-58
2021/12/19 07:55:40;;;;;;;17.65;8.60;;;3.20;99.90;;;;;;5093662;28;20184;-58
2021/12/19 07:58:05;;;;;;;14.57;7.97;;;3.20;99.90;;;;;;5115188;28;20276;-58
2021/12/19 08:00:31;;;;;;;13.07;7.10;;;3.30;99.90;;;;;;5106693;28;20211;-58
2021/12/19 08:02:57;;;;;;;10.90;5.90;;;3.30;99.90;;;;;;5095053;28;20180;-58
2021/12/19 08:05:23;;;;;;;12.43;5.90;;;3.30;99.90;;;;;;5094591;28;20192;-58
2021/12/19 08:07:55;;;;;;;9.35;5.40;;;3.30;99.90;;;;;;5094853;28;20321;-58
2021/12/19 08:13:00;;;;;;;10.98;5.25;;;3.20;99.90;;;;;;5094029;28;20199;-58
2021/12/19 08:15:25;;;;;;;12.70;6.00;;;3.20;99.90;;;;;;5094340;28;20181;-58
2021/12/19 08:17:51;;;;;;;13.63;6.53;;;3.20;99.90;;;;;;5092967;28;20259;-58
2021/12/19 08:20:17;;;;;;;12.30;6.50;;;3.20;99.90;;;;;;5094275;28;20179;-58
2021/12/19 08:22:44;;;;;;;12.90;6.18;;;3.20;99.90;;;;;;5094930;28;20172;-58
2021/12/19 08:25:10;;;;;;;27.23;13.10;;;3.20;99.90;;;;;;5094396;28;20251;-58
2021/12/19 08:27:37;;;;;;;14.98;7.40;;;3.30;99.90;;;;;;5094016;28;20221;-58
2021/12/19 08:30:08;;;;;;;13.75;6.97;;;3.40;99.90;;;;;;5094428;28;20168;-58
2021/12/19 08:32:34;;;;;;;15.27;7.95;;;3.40;99.90;;;;;;5083123;28;20180;-58
2021/12/19 08:35:00;;;;;;;14.60;7.43;;;3.40;99.90;;;;;;5093853;28;20186;-57
2021/12/19 08:37:26;;;;;;;18.40;8.63;;;3.30;99.90;;;;;;5094276;28;20295;-58
2021/12/19 08:39:51;;;;;;;18.52;9.10;;;3.30;99.90;;;;;;5094205;28;20165;-58
2021/12/19 08:42:17;;;;;;;14.82;8.02;;;3.30;99.90;;;;;;5093518;28;20208;-58
2021/12/19 08:44:43;;;;;;;17.13;8.20;;;3.30;99.90;;;;;;5093574;28;20176;-58
2021/12/19 08:47:09;;;;;;;14.02;7.47;;;3.30;99.90;;;;;;5086282;28;20212;-58
2021/12/19 08:49:35;;;;;;;12.95;7.03;;;3.30;99.90;;;;;;5084698;28;20208;-58
2021/12/19 08:52:02;;;;;;;15.45;7.90;;;3.20;99.90;;;;;;5093601;28;20229;-60
2021/12/19 08:54:28;;;;;;;15.65;8.00;;;3.20;99.90;;;;;;5093273;28;20245;-62
2021/12/19 08:56:53;;;;;;;18.10;9.10;;;3.20;99.90;;;;;;5092739;28;20629;-60
2021/12/19 08:59:19;;;;;;;19.20;8.75;;;3.20;99.90;;;;;;5093769;28;20188;-63
2021/12/19 09:01:44;;;;;;;17.83;8.20;;;3.20;99.90;;;;;;5092977;28;20168;-61
2021/12/19 09:04:10;;;;;;;13.73;7.03;;;3.20;99.90;;;;;;5091917;28;20180;-63
2021/12/19 09:06:36;;;;;;;17.02;7.55;;;3.20;99.90;;;;;;5092983;28;20221;-59
2021/12/19 09:09:04;;;;;;;16.75;6.95;;;3.20;99.90;;;;;;5093686;28;20262;-59
2021/12/19 09:11:31;;;;;;;12.10;6.50;;;3.30;99.90;;;;;;5092357;28;20241;-60
2021/12/19 09:13:57;;;;;;;15.60;7.13;;;3.20;99.90;;;;;;5093691;28;20220;-60
2021/12/19 09:16:22;;;;;;;19.13;7.57;;;3.30;99.90;;;;;;5093120;28;20215;-60
2021/12/19 09:18:48;;;;;;;17.02;7.15;;;3.30;99.90;;;;;;5093045;28;20207;-60
2021/12/19 09:21:14;;;;;;;15.02;7.00;;;3.40;99.90;;;;;;5092643;28;20180;-62
2021/12/19 09:23:40;;;;;;;15.65;6.90;;;3.30;99.90;;;;;;5090596;28;20191;-62
2021/12/19 09:26:06;;;;;;;13.20;6.93;;;3.40;99.90;;;;;;5086091;28;20263;-62
2021/12/19 09:28:43;;;;;;;13.98;7.28;;;3.40;99.90;;;;;;5093113;28;20674;-60
2021/12/19 09:31:08;;;;;;;12.75;6.55;;;3.40;99.90;;;;;;5093318;28;20244;-64
2021/12/19 09:33:34;;;;;;;9.77;5.60;;;3.40;99.90;;;;;;5076455;28;20561;-59
2021/12/19 09:35:59;;;;;;;10.38;6.07;;;3.40;99.90;;;;;;5091694;28;20634;-58
2021/12/19 09:38:26;;;;;;;13.02;6.40;;;3.40;99.90;;;;;;5093186;28;20225;-60
2021/12/19 09:40:58;;;;;;;13.57;6.32;;;3.40;99.90;;;;;;5092960;28;20266;-59
2021/12/19 09:43:43;;;;;;;12.05;6.45;;;3.40;99.90;;;;;;5083478;28;20171;-62
2021/12/19 09:46:17;;;;;;;13.57;6.60;;;3.40;99.90;;;;;;5103948;28;20180;-60
2021/12/19 09:48:45;;;;;;;11.95;6.80;;;3.50;99.90;;;;;;5093319;28;20263;-60
2021/12/19 09:51:11;;;;;;;14.30;7.35;;;3.40;99.90;;;;;;5091943;28;20259;-60
2021/12/19 09:53:39;;;;;;;14.82;7.07;;;3.40;99.90;;;;;;5092543;28;20177;-60
2021/12/19 09:56:05;;;;;;;13.27;7.25;;;3.40;99.90;;;;;;5091256;28;20184;-60
2021/12/19 09:58:32;;;;;;;12.80;6.32;;;3.40;99.90;;;;;;5093028;28;20273;-60
2021/12/19 10:01:00;;;;;;;28.20;16.42;;;3.40;99.90;;;;;;5092543;28;20267;-60
2021/12/19 10:03:25;;;;;;;22.58;14.30;;;3.40;99.90;;;;;;5092298;28;20195;-60
2021/12/19 10:06:15;;;;;;;14.38;8.45;;;3.40;99.90;;;;;;5082878;28;20184;-61
2021/12/19 10:08:41;;;;;;;46.55;21.98;;;3.50;99.90;;;;;;5093031;28;20168;-60
2021/12/19 10:11:30;;;;;;;59.33;28.42;;;3.70;99.90;;;;;;5091394;28;20585;-60
2021/12/19 10:13:56;;;;;;;19.95;11.02;;;4.50;99.90;;;;;;5090896;28;20635;-60
2021/12/19 10:16:30;;;;;;;16.83;9.00;;;4.70;99.90;;;;;;5092280;28;20191;-60
2021/12/19 10:18:59;;;;;;;13.75;7.30;;;4.60;99.90;;;;;;5091843;28;20261;-58
2021/12/19 10:21:25;;;;;;;13.63;7.32;;;4.40;99.90;;;;;;5092542;28;20512;-59
2021/12/19 10:23:51;;;;;;;12.95;7.15;;;4.20;99.90;;;;;;5092516;28;20184;-58
2021/12/19 10:26:16;;;;;;;11.43;6.25;;;4.00;99.90;;;;;;5090743;28;20650;-58
2021/12/19 10:28:58;;;;;;;8.82;5.00;;;3.90;99.90;;;;;;5092638;28;20708;-58
2021/12/19 10:31:25;;;;;;;9.75;5.45;;;3.70;99.90;;;;;;5092189;28;20168;-59
2021/12/19 10:33:52;;;;;;;14.13;7.50;;;3.70;99.90;;;;;;5092399;28;20172;-59
2021/12/19 10:36:18;;;;;;;10.82;6.30;;;3.60;99.90;;;;;;5092016;28;20187;-59
2021/12/19 10:38:49;;;;;;;12.70;6.82;;;3.70;99.90;;;;;;5092232;28;20220;-59
2021/12/19 10:41:21;;;;;;;11.73;6.20;;;3.70;99.90;;;;;;5090745;28;20179;-59
2021/12/19 10:46:44;;;;;;;13.40;6.60;;;3.60;99.90;;;;;;5070445;28;20199;-60
2021/12/19 10:49:33;;;;;;;13.45;6.72;;;3.60;99.90;;;;;;5092077;28;20180;-60
2021/12/19 10:52:01;;;;;;;9.35;5.90;;;3.60;99.90;;;;;;5091859;28;20275;-59
2021/12/19 10:54:28;;;;;;;12.77;6.90;;;3.50;99.90;;;;;;5098725;28;20183;-60
2021/12/19 10:57:06;;;;;;;15.55;8.27;;;3.50;99.90;;;;;;5093465;28;20226;-59
2021/12/19 10:59:31;;;;;;;13.20;7.43;;;3.50;99.90;;;;;;5091884;28;20615;-59
2021/12/19 11:01:58;;;;;;;11.75;6.60;;;3.60;99.90;;;;;;5094393;28;20248;-60
2021/12/19 11:04:24;;;;;;;15.43;7.57;;;3.60;99.90;;;;;;5092555;28;20183;-60
2021/12/19 11:06:58;;;;;;;11.95;5.80;;;3.60;99.90;;;;;;5090357;28;20172;-59
2021/12/19 11:09:31;;;;;;;12.00;6.80;;;3.50;99.90;;;;;;5091648;28;20183;-60
2021/12/19 11:11:58;;;;;;;13.75;6.13;;;3.50;99.90;;;;;;5108503;28;20171;-60
2021/12/19 11:14:37;;;;;;;9.50;5.87;;;3.50;99.90;;;;;;5104083;28;20255;-60
2021/12/19 11:17:06;;;;;;;9.60;5.57;;;3.60;99.90;;;;;;5085435;28;20286;-59
2021/12/19 11:19:32;;;;;;;10.63;5.78;;;3.60;99.90;;;;;;5091075;28;20180;-59
2021/12/19 11:21:58;;;;;;;7.82;5.05;;;3.50;99.90;;;;;;5090180;28;20688;-59
2021/12/19 11:24:24;;;;;;;8.23;5.18;;;3.60;99.90;;;;;;5091553;28;20187;-60
2021/12/19 11:26:56;;;;;;;13.80;7.10;;;3.60;99.90;;;;;;5097328;28;20528;-59
2021/12/19 11:29:23;;;;;;;16.30;10.40;;;3.60;99.90;;;;;;5098026;28;20168;-59
2021/12/19 11:31:57;;;;;;;10.75;7.43;;;3.60;99.90;;;;;;5096999;28;20194;-59
2021/12/19 11:34:34;;;;;;;9.13;5.70;;;3.60;99.90;;;;;;5097967;28;20240;-59
2021/12/19 11:37:08;;;;;;;10.50;6.15;;;3.50;99.90;;;;;;5097320;28;20167;-59
2021/12/19 11:39:37;;;;;;;10.70;5.95;;;3.50;99.90;;;;;;5097849;28;20210;-59
2021/12/19 11:42:16;;;;;;;8.52;5.60;;;3.50;99.90;;;;;;5097843;28;20176;-59
2021/12/19 11:44:51;;;;;;;9.13;5.38;;;3.50;99.90;;;;;;5096362;28;20508;-59
2021/12/19 11:47:38;;;;;;;10.15;5.57;;;3.40;99.90;;;;;;5086335;28;20175;-59
2021/12/19 11:50:16;;;;;;;8.85;5.60;;;3.40;99.90;;;;;;5078254;28;20180;-59
2021/12/19 11:52:42;;;;;;;7.93;5.00;;;3.50;99.90;;;;;;5098107;28;20551;-59
2021/12/19 11:55:13;;;;;;;7.72;5.00;;;3.50;99.90;;;;;;5095945;28;20224;-59
2021/12/19 11:57:39;;;;;;;7.32;4.75;;;3.50;99.90;;;;;;5097557;28;20284;-59
2021/12/19 12:00:24;;;;;;;7.93;4.60;;;3.40;99.90;;;;;;5096762;28;20180;-59
2021/12/19 12:03:13;;;;;;;9.88;5.28;;;3.50;99.90;;;;;;5098192;28;20203;-59
2021/12/19 12:05:40;;;;;;;7.75;4.88;;;3.40;99.90;;;;;;5098206;28;20202;-59
2021/12/19 12:08:08;;;;;;;9.30;5.57;;;3.40;99.90;;;;;;5097895;28;20222;-59
2021/12/19 12:10:54;;;;;;;10.80;5.47;;;3.30;99.90;;;;;;5097451;28;20180;-59
2021/12/19 12:13:31;;;;;;;12.05;6.40;;;3.30;99.90;;;;;;5097978;28;20161;-59
2021/12/19 12:19:03;;;;;;;15.18;7.25;;;3.30;99.90;;;;;;5097964;28;20307;-59
2021/12/19 12:21:39;;;;;;;11.88;7.05;;;3.30;99.90;;;;;;5097748;28;20180;-60
2021/12/19 12:24:07;;;;;;;12.98;7.20;;;3.40;99.90;;;;;;5098015;28;20190;-59
2021/12/19 12:29:34;;;;;;;14.50;8.17;;;3.30;99.90;;;;;;5084690;28;20187;-59
2021/12/19 12:32:00;;;;;;;15.45;8.63;;;3.30;99.90;;;;;;5097189;28;20525;-59
2021/12/19 12:34:25;;;;;;;15.17;8.33;;;3.30;99.90;;;;;;5097737;28;20615;-59
2021/12/19 12:36:51;;;;;;;16.35;8.18;;;3.20;99.90;;;;;;5095000;28;20631;-59
2021/12/19 12:39:25;;;;;;;16.10;8.73;;;3.20;99.90;;;;;;5094387;28;20594;-59
2021/12/19 12:41:59;;;;;;;19.05;9.48;;;3.20;99.90;;;;;;5093733;28;20175;-60
2021/12/19 12:44:24;;;;;;;23.52;11.32;;;3.20;99.90;;;;;;5093689;28;20589;-60
2021/12/19 12:46:51;;;;;;;19.07;10.10;;;3.20;99.90;;;;;;5094064;28;20286;-60
2021/12/19 12:49:21;;;;;;;16.97;9.57;;;3.30;99.90;;;;;;5092463;28;20187;-59
2021/12/19 12:51:50;;;;;;;19.90;9.95;;;3.30;99.90;;;;;;5091797;28;20176;-59
2021/12/19 12:54:25;;;;;;;15.73;9.02;;;3.30;99.90;;;;;;5093210;28;20184;-59
2021/12/19 12:56:56;;;;;;;21.90;9.73;;;3.30;99.90;;;;;;5092969;28;20277;-60
2021/12/19 12:59:24;;;;;;;22.00;9.93;;;3.30;99.90;;;;;;5093701;28;20255;-60
2021/12/19 13:01:53;;;;;;;17.15;9.27;;;3.20;99.90;;;;;;5094276;28;20187;-59
2021/12/19 13:04:21;;;;;;;20.00;9.88;;;3.30;99.90;;;;;;5094160;28;20184;-59
2021/12/19 13:06:48;;;;;;;18.13;9.77;;;3.30;99.90;;;;;;5094305;28;20164;-60
2021/12/19 13:09:46;;;;;;;19.75;9.90;;;3.30;99.90;;;;;;5094063;28;20176;-59
2021/12/19 13:12:18;;;;;;;16.08;8.85;;;3.30;99.90;;;;;;5093050;28;20168;-60
2021/12/19 13:14:48;;;;;;;19.45;9.98;;;3.30;99.90;;;;;;5093886;28;20176;-60
2021/12/19 13:17:35;;;;;;;21.77;10.03;;;3.30;99.90;;;;;;5094049;28;20226;-59
2021/12/19 13:20:11;;;;;;;20.15;10.02;;;3.30;99.90;;;;;;5082686;28;20294;-59
2021/12/19 13:22:49;;;;;;;18.77;10.30;;;3.20;99.90;;;;;;5093592;28;20229;-59
2021/12/19 13:25:16;;;;;;;19.07;10.07;;;3.30;99.90;;;;;;5093495;28;20188;-59
2021/12/19 13:27:58;;;;;;;21.43;10.53;;;3.30;99.90;;;;;;5093871;28;20537;-60
2021/12/19 13:30:29;;;;;;;20.67;9.90;;;3.20;99.90;;;;;;5093590;28;20238;-60
2021/12/19 13:33:07;;;;;;;21.42;10.55;;;3.20;99.90;;;;;;5093837;28;20172;-59
2021/12/19 13:35:42;;;;;;;22.48;11.48;;;3.30;99.90;;;;;;5093394;28;20186;-60
2021/12/19 13:38:15;;;;;;;23.13;13.03;;;3.30;99.90;;;;;;5093683;28;20631;-59
2021/12/19 13:40:47;;;;;;;22.33;11.15;;;3.30;99.90;;;;;;5093480;28;20180;-59
2021/12/19 13:43:18;;;;;;;25.57;12.77;;;3.30;99.90;;;;;;5092299;28;20187;-60
2021/12/19 13:45:56;;;;;;;22.93;11.47;;;3.20;99.90;;;;;;5092770;28;20176;-60
2021/12/19 13:48:30;;;;;;;22.83;11.37;;;3.20;99.90;;;;;;5092674;28;20201;-60
2021/12/19 13:51:00;;;;;;;36.55;14.98;;;3.20;99.90;;;;;;5093108;28;20221;-59
2021/12/19 13:53:29;;;;;;;25.48;11.63;;;3.20;99.90;;;;;;5093310;28;20176;-60
2021/12/19 13:56:05;;;;;;;36.53;15.77;;;3.20;99.90;;;;;;5088679;28;20180;-60
2021/12/19 13:58:34;;;;;;;25.83;11.43;;;3.30;99.90;;;;;;5092870;28;20257;-60